Time;durP1;ratioP1;P1;durP2;ratioP2;P2;SDS_P1;SDS_P2;PMS_P1;PMS_P2;Temp;Humidity;BMP_temperature;BMP_pressure;BME280_temperature;BME280_humidity;BME280_pressure;Samples;Min_cycle;Max_cycle;Signal;HPM_P1;HPM_P2
2023/03/31 00:01:29;;;;;;;2.30;1.20;;;7.90;99.90;;;;;;5098567;28;20485;-78
2023/03/31 00:04:03;;;;;;;3.20;1.63;;;7.80;99.90;;;;;;5098967;28;20542;-78
2023/03/31 00:06:31;;;;;;;2.60;1.20;;;7.80;99.90;;;;;;5097045;28;20462;-77
2023/03/31 00:09:00;;;;;;;3.10;1.00;;;7.90;99.90;;;;;;5099657;28;20483;-76
2023/03/31 00:11:28;;;;;;;2.73;0.90;;;7.90;99.90;;;;;;5095310;28;20462;-76
2023/03/31 00:13:54;;;;;;;1.53;0.80;;;7.90;99.90;;;;;;5096102;28;21155;-76
2023/03/31 00:16:21;;;;;;;1.60;1.03;;;8.00;99.90;;;;;;5091182;28;20435;-82
2023/03/31 00:18:50;;;;;;;4.40;1.33;;;8.00;99.90;;;;;;5099090;28;20443;-77
2023/03/31 00:21:28;;;;;;;2.73;0.93;;;8.20;99.90;;;;;;5104407;28;20449;-77
2023/03/31 00:23:58;;;;;;;4.20;1.00;;;8.20;99.90;;;;;;5101533;28;20464;-79
2023/03/31 00:26:26;;;;;;;1.00;0.70;;;8.30;99.90;;;;;;5098109;28;20493;-77
2023/03/31 00:28:54;;;;;;;2.80;0.87;;;8.40;99.90;;;;;;5098796;28;21015;-77
2023/03/31 00:31:21;;;;;;;4.53;1.13;;;8.40;99.90;;;;;;5098372;28;20449;-77
2023/03/31 00:33:50;;;;;;;0.87;0.70;;;8.30;99.90;;;;;;5102062;28;20470;-78
2023/03/31 00:36:20;;;;;;;12.97;1.63;;;8.20;99.90;;;;;;5108112;28;20508;-77
2023/03/31 00:38:47;;;;;;;2.33;0.80;;;8.20;99.90;;;;;;5098058;28;20478;-77
2023/03/31 00:41:15;;;;;;;0.90;0.80;;;8.20;99.90;;;;;;5102993;28;20443;-77
2023/03/31 00:43:57;;;;;;;1.63;0.87;;;8.20;99.90;;;;;;5099078;28;20534;-78
2023/03/31 00:46:30;;;;;;;1.83;1.23;;;8.20;99.90;;;;;;5103078;28;21089;-78
2023/03/31 00:48:59;;;;;;;2.03;0.90;;;8.20;99.90;;;;;;5099437;28;20435;-77
2023/03/31 00:51:29;;;;;;;0.77;0.77;;;8.20;99.90;;;;;;5104411;28;20507;-77
2023/03/31 00:53:59;;;;;;;0.97;0.70;;;8.20;99.90;;;;;;5106579;28;20458;-77
2023/03/31 00:56:28;;;;;;;2.30;1.00;;;8.30;99.90;;;;;;5107094;28;20538;-76
2023/03/31 00:59:00;;;;;;;2.40;0.80;;;8.40;99.90;;;;;;5108044;28;20482;-76
2023/03/31 01:01:29;;;;;;;2.03;0.80;;;8.40;99.90;;;;;;5104290;28;20507;-77
2023/03/31 01:03:58;;;;;;;1.63;0.83;;;8.40;99.90;;;;;;5093560;28;20497;-77
2023/03/31 01:06:29;;;;;;;4.10;1.20;;;8.50;99.90;;;;;;5094797;28;20509;-75
2023/03/31 01:08:57;;;;;;;0.83;0.80;;;8.40;99.90;;;;;;5091440;28;20463;-77
2023/03/31 01:11:29;;;;;;;4.13;1.00;;;8.30;99.90;;;;;;5091125;28;20447;-78
2023/03/31 01:13:57;;;;;;;0.87;0.60;;;8.30;99.90;;;;;;5096510;28;20447;-78
2023/03/31 01:16:24;;;;;;;6.83;0.97;;;8.30;99.90;;;;;;5103621;28;20538;-77
2023/03/31 01:18:51;;;;;;;3.53;0.90;;;8.20;99.90;;;;;;5103257;28;20517;-76
2023/03/31 01:21:58;;;;;;;0.90;0.80;;;8.20;99.90;;;;;;5099393;28;20506;-77
2023/03/31 01:25:00;;;;;;;1.23;0.60;;;8.10;99.90;;;;;;5101855;28;20504;-77
2023/03/31 01:27:49;;;;;;;1.53;0.87;;;7.90;99.90;;;;;;5104095;28;20486;-77
2023/03/31 01:30:43;;;;;;;0.70;0.70;;;7.80;99.90;;;;;;5103408;28;20439;-80
2023/03/31 01:33:34;;;;;;;5.13;1.20;;;7.80;99.90;;;;;;5065490;28;20470;-81
2023/03/31 01:36:42;;;;;;;2.03;0.77;;;8.00;99.90;;;;;;5081590;28;20451;-82
2023/03/31 01:39:55;;;;;;;1.40;0.90;;;8.00;99.90;;;;;;5098638;28;20598;-77
2023/03/31 01:42:32;;;;;;;1.93;1.00;;;8.00;99.90;;;;;;5099215;28;20979;-77
2023/03/31 01:45:11;;;;;;;1.83;0.90;;;8.10;99.90;;;;;;5095299;28;20523;-80
2023/03/31 01:47:45;;;;;;;2.03;1.03;;;8.00;99.90;;;;;;5104825;28;20450;-78
2023/03/31 01:50:22;;;;;;;1.33;1.00;;;8.10;99.90;;;;;;5098009;28;21130;-75
2023/03/31 01:52:56;;;;;;;3.00;0.90;;;8.10;99.90;;;;;;5097668;28;20508;-80
2023/03/31 01:55:33;;;;;;;1.27;0.90;;;8.00;99.90;;;;;;5109538;28;20454;-77
2023/03/31 01:58:07;;;;;;;1.07;0.70;;;8.00;99.90;;;;;;5110786;28;20822;-78
2023/03/31 02:00:39;;;;;;;3.20;0.60;;;8.00;99.90;;;;;;5119935;28;20451;-77
2023/03/31 02:03:09;;;;;;;1.67;1.00;;;7.90;99.90;;;;;;5110457;28;21033;-77
2023/03/31 02:05:40;;;;;;;0.83;0.83;;;7.90;99.90;;;;;;5106143;28;20830;-77
2023/03/31 02:08:12;;;;;;;2.07;0.77;;;7.80;99.90;;;;;;5104335;28;20455;-79
2023/03/31 02:10:41;;;;;;;1.07;0.70;;;7.80;99.90;;;;;;5104607;28;20457;-79
2023/03/31 02:13:10;;;;;;;1.20;0.80;;;7.70;99.90;;;;;;5098653;28;20447;-77
2023/03/31 02:15:40;;;;;;;2.77;1.30;;;7.60;99.90;;;;;;5103755;28;20442;-77
2023/03/31 02:18:12;;;;;;;1.10;1.00;;;7.60;99.90;;;;;;5096388;28;20494;-77
2023/03/31 02:20:42;;;;;;;1.20;0.90;;;7.70;99.90;;;;;;5104040;28;20451;-77
2023/03/31 02:23:12;;;;;;;4.40;0.87;;;7.70;99.90;;;;;;5102229;28;21162;-77
2023/03/31 02:25:48;;;;;;;0.93;0.83;;;7.60;99.90;;;;;;5100426;28;20511;-77
2023/03/31 02:28:22;;;;;;;0.90;0.60;;;7.50;99.90;;;;;;5099964;28;20482;-77
2023/03/31 02:30:55;;;;;;;0.80;0.80;;;7.50;99.90;;;;;;5101918;28;20446;-77
2023/03/31 02:33:22;;;;;;;1.90;1.07;;;7.40;99.90;;;;;;5102029;28;20455;-77
2023/03/31 02:35:51;;;;;;;2.07;0.80;;;7.40;99.90;;;;;;5103944;28;20930;-78
2023/03/31 02:38:18;;;;;;;1.43;1.03;;;7.30;99.90;;;;;;5098851;28;20565;-77
2023/03/31 02:40:45;;;;;;;2.93;0.70;;;7.20;99.90;;;;;;5096987;28;20530;-77
2023/03/31 02:43:12;;;;;;;3.13;1.13;;;7.20;99.90;;;;;;5099706;28;20596;-79
2023/03/31 02:45:45;;;;;;;4.30;1.63;;;7.40;99.90;;;;;;5094189;28;20506;-77
2023/03/31 02:48:16;;;;;;;2.10;1.53;;;7.40;99.90;;;;;;5096758;28;20458;-77
2023/03/31 02:51:15;;;;;;;3.13;1.80;;;7.40;99.90;;;;;;5106095;28;20450;-78
2023/03/31 02:53:57;;;;;;;3.50;2.40;;;7.30;99.90;;;;;;5029645;28;20438;-77
2023/03/31 02:56:44;;;;;;;2.50;2.30;;;7.20;99.90;;;;;;5104095;28;20902;-78
2023/03/31 02:59:33;;;;;;;3.23;3.00;;;7.00;99.90;;;;;;5096586;28;20478;-77
2023/03/31 03:02:09;;;;;;;2.50;2.17;;;6.90;99.90;;;;;;5103539;28;21150;-81
2023/03/31 03:04:58;;;;;;;5.00;3.30;;;6.90;99.90;;;;;;5099284;28;20450;-77
2023/03/31 03:07:34;;;;;;;4.70;3.20;;;6.80;99.90;;;;;;5099701;28;20856;-77
2023/03/31 03:10:04;;;;;;;3.40;3.20;;;6.80;99.90;;;;;;5098879;28;20442;-80
2023/03/31 03:12:39;;;;;;;5.23;3.50;;;6.80;99.90;;;;;;5092293;28;20510;-78
2023/03/31 03:15:11;;;;;;;3.53;2.53;;;6.80;99.90;;;;;;5101491;28;20465;-77
2023/03/31 03:17:41;;;;;;;4.73;3.77;;;6.70;99.90;;;;;;5098101;28;20551;-77
2023/03/31 03:20:09;;;;;;;3.03;2.83;;;6.70;99.90;;;;;;5103234;28;20480;-75
2023/03/31 03:22:37;;;;;;;3.10;1.80;;;6.60;99.90;;;;;;5097823;28;20471;-77
2023/03/31 03:25:05;;;;;;;4.10;2.43;;;6.60;99.90;;;;;;5098217;28;20814;-79
2023/03/31 03:27:32;;;;;;;4.50;2.67;;;6.60;99.90;;;;;;5101032;28;20550;-80
2023/03/31 03:30:01;;;;;;;2.83;2.60;;;6.60;99.90;;;;;;5101918;28;21259;-80
2023/03/31 03:32:28;;;;;;;4.23;3.60;;;6.70;99.90;;;;;;5098279;28;20519;-77
2023/03/31 03:34:57;;;;;;;4.57;3.00;;;6.70;99.90;;;;;;5100181;28;20862;-79
2023/03/31 03:37:24;;;;;;;3.80;3.00;;;6.80;99.90;;;;;;5102689;28;20495;-77
2023/03/31 03:39:51;;;;;;;3.73;3.43;;;6.80;99.90;;;;;;5103534;28;20454;-79
2023/03/31 03:42:18;;;;;;;3.40;3.20;;;6.80;99.90;;;;;;5099887;28;20497;-77
2023/03/31 03:44:44;;;;;;;3.50;3.10;;;6.90;99.90;;;;;;5102379;28;20499;-79
2023/03/31 03:47:11;;;;;;;3.67;2.70;;;7.00;99.90;;;;;;5103707;28;20470;-77
2023/03/31 03:49:38;;;;;;;9.17;2.60;;;7.00;99.90;;;;;;5102055;28;20450;-77
2023/03/31 03:52:07;;;;;;;2.93;2.73;;;6.90;99.90;;;;;;5095228;28;20492;-77
2023/03/31 03:54:34;;;;;;;4.40;2.70;;;6.80;99.90;;;;;;5100918;28;20462;-77
2023/03/31 03:57:01;;;;;;;4.10;3.30;;;6.80;99.90;;;;;;5086606;28;20516;-79
2023/03/31 03:59:28;;;;;;;7.50;2.53;;;6.80;99.90;;;;;;5104311;28;20482;-77
2023/03/31 04:01:55;;;;;;;2.80;2.40;;;6.70;99.90;;;;;;5097166;28;20959;-77
2023/03/31 04:04:22;;;;;;;2.93;2.67;;;6.70;99.90;;;;;;5099278;28;20526;-77
2023/03/31 04:06:49;;;;;;;6.80;3.70;;;6.70;99.90;;;;;;5102458;27;20433;-80
2023/03/31 04:09:18;;;;;;;2.10;1.90;;;6.70;99.90;;;;;;5104923;28;20462;-77
2023/03/31 04:11:44;;;;;;;5.83;2.97;;;6.60;99.90;;;;;;5097437;28;20443;-76
2023/03/31 04:14:11;;;;;;;5.20;3.60;;;6.50;99.90;;;;;;5096241;28;21048;-77
2023/03/31 04:16:39;;;;;;;6.23;3.27;;;6.50;99.90;;;;;;5103810;28;20493;-79
2023/03/31 04:19:07;;;;;;;4.27;3.50;;;6.40;99.90;;;;;;5107761;28;20474;-75
2023/03/31 04:21:34;;;;;;;4.77;3.40;;;6.30;99.90;;;;;;5109500;28;20442;-77
2023/03/31 04:24:03;;;;;;;3.83;3.53;;;6.20;99.90;;;;;;5103405;28;20505;-76
2023/03/31 04:26:41;;;;;;;3.53;3.23;;;6.20;99.90;;;;;;5102515;28;20543;-75
2023/03/31 04:29:09;;;;;;;5.10;3.13;;;6.10;99.90;;;;;;5103585;28;20450;-80
2023/03/31 04:31:41;;;;;;;4.00;3.40;;;6.00;99.90;;;;;;5099156;28;20442;-77
2023/03/31 04:34:11;;;;;;;5.10;4.00;;;6.00;99.90;;;;;;5107544;28;20466;-77
2023/03/31 04:36:41;;;;;;;5.67;4.97;;;6.10;99.90;;;;;;5106375;28;20455;-79
2023/03/31 04:39:10;;;;;;;4.07;3.77;;;6.10;99.90;;;;;;5110549;28;20493;-76
2023/03/31 04:41:39;;;;;;;5.43;3.77;;;6.00;99.90;;;;;;5115030;28;20975;-78
2023/03/31 04:44:06;;;;;;;5.00;4.60;;;5.90;99.90;;;;;;5115367;28;20446;-78
2023/03/31 04:46:33;;;;;;;4.43;3.97;;;5.80;99.90;;;;;;5115515;28;20466;-81
2023/03/31 04:49:01;;;;;;;3.63;2.73;;;5.80;99.90;;;;;;5109872;28;20458;-78
2023/03/31 04:51:28;;;;;;;5.40;3.70;;;5.80;99.90;;;;;;5107742;28;20471;-80
2023/03/31 04:53:55;;;;;;;6.27;4.10;;;5.70;99.90;;;;;;5100379;28;21006;-79
2023/03/31 04:56:22;;;;;;;4.47;3.63;;;5.90;99.90;;;;;;5099471;28;21031;-78
2023/03/31 04:58:51;;;;;;;4.53;3.80;;;6.00;99.90;;;;;;5100245;28;20533;-78
2023/03/31 05:01:18;;;;;;;7.10;4.27;;;6.00;99.90;;;;;;5106947;28;20457;-77
2023/03/31 05:03:46;;;;;;;5.00;4.60;;;6.00;99.90;;;;;;5105103;28;20443;-77
2023/03/31 05:06:14;;;;;;;5.43;3.70;;;6.00;99.90;;;;;;5107529;28;20446;-78
2023/03/31 05:08:41;;;;;;;7.67;5.50;;;6.00;99.90;;;;;;5095279;28;20553;-78
2023/03/31 05:11:08;;;;;;;5.90;5.33;;;6.10;99.90;;;;;;5105615;28;20454;-78
2023/03/31 05:13:35;;;;;;;8.23;5.43;;;6.10;99.90;;;;;;5100810;28;20515;-79
2023/03/31 05:16:09;;;;;;;5.03;4.57;;;6.10;99.90;;;;;;5101507;28;20460;-77
2023/03/31 05:18:36;;;;;;;7.43;6.20;;;6.10;99.90;;;;;;5105164;28;20481;-80
2023/03/31 05:21:11;;;;;;;6.00;4.80;;;6.10;99.90;;;;;;5102916;28;20454;-77
2023/03/31 05:23:38;;;;;;;7.67;5.33;;;6.10;99.90;;;;;;5106707;28;20529;-81
2023/03/31 05:26:06;;;;;;;7.40;5.30;;;6.30;99.90;;;;;;5103631;28;20446;-78
2023/03/31 05:28:34;;;;;;;10.03;5.40;;;6.30;99.90;;;;;;5101973;28;20888;-77
2023/03/31 05:31:02;;;;;;;6.33;4.93;;;6.40;99.90;;;;;;5104020;28;20439;-79
2023/03/31 05:33:31;;;;;;;5.93;5.40;;;6.30;99.90;;;;;;5106890;28;20454;-77
2023/03/31 05:35:59;;;;;;;6.43;5.70;;;6.30;99.90;;;;;;5098526;28;20455;-78
2023/03/31 05:38:27;;;;;;;6.40;5.00;;;6.50;99.90;;;;;;5096855;28;20485;-79
2023/03/31 05:40:55;;;;;;;6.50;5.10;;;6.50;99.90;;;;;;5095884;28;21019;-77
2023/03/31 05:43:22;;;;;;;8.60;5.60;;;6.50;99.90;;;;;;5106113;28;20450;-78
2023/03/31 05:45:49;;;;;;;3.57;3.27;;;6.60;99.90;;;;;;5106187;28;20899;-77
2023/03/31 05:48:16;;;;;;;4.57;3.83;;;6.80;99.90;;;;;;5097700;28;20451;-78
2023/03/31 05:50:44;;;;;;;4.13;3.83;;;6.80;99.90;;;;;;5099197;28;20462;-79
2023/03/31 05:53:11;;;;;;;5.10;4.60;;;6.80;99.90;;;;;;5095985;28;20507;-80
2023/03/31 05:55:39;;;;;;;3.70;3.47;;;6.90;99.90;;;;;;5102338;28;20867;-77
2023/03/31 05:58:07;;;;;;;4.20;3.90;;;7.10;99.90;;;;;;5104703;28;20454;-77
2023/03/31 06:00:35;;;;;;;8.40;5.30;;;7.20;99.90;;;;;;5096528;28;20461;-77
2023/03/31 06:03:02;;;;;;;8.03;4.57;;;7.30;99.90;;;;;;5101496;28;20459;-81
2023/03/31 06:05:29;;;;;;;5.77;4.17;;;7.40;99.90;;;;;;5107477;28;20447;-78
2023/03/31 06:07:58;;;;;;;6.30;4.47;;;7.60;99.90;;;;;;5101257;28;20834;-78
2023/03/31 06:10:25;;;;;;;7.97;5.30;;;7.70;99.90;;;;;;5101789;28;20511;-77
2023/03/31 06:12:52;;;;;;;7.30;4.60;;;7.80;99.90;;;;;;5104167;28;20523;-80
2023/03/31 06:15:19;;;;;;;6.40;5.03;;;8.00;99.90;;;;;;5103375;28;20481;-79
2023/03/31 06:17:46;;;;;;;10.33;5.80;;;8.10;99.90;;;;;;5105368;28;21011;-80
2023/03/31 06:20:13;;;;;;;8.73;5.60;;;8.30;99.90;;;;;;5101732;28;20487;-78
2023/03/31 06:22:40;;;;;;;4.87;4.47;;;8.40;99.90;;;;;;5098312;28;20968;-77
2023/03/31 06:25:09;;;;;;;8.00;5.80;;;8.50;99.90;;;;;;5101480;28;20504;-78
2023/03/31 06:27:36;;;;;;;6.47;5.90;;;8.70;99.90;;;;;;5099376;28;20527;-78
2023/03/31 06:30:03;;;;;;;6.67;5.97;;;8.70;99.90;;;;;;5101434;28;20454;-76
2023/03/31 06:32:30;;;;;;;6.83;5.33;;;8.60;99.90;;;;;;5099488;28;20803;-77
2023/03/31 06:34:57;;;;;;;4.93;4.47;;;8.90;99.90;;;;;;5101714;28;20454;-78
2023/03/31 06:37:24;;;;;;;6.07;4.80;;;9.00;99.90;;;;;;5094826;28;20454;-83
2023/03/31 06:39:52;;;;;;;5.00;4.60;;;8.90;99.90;;;;;;5108465;27;20491;-78
2023/03/31 06:42:20;;;;;;;4.73;4.30;;;9.00;99.90;;;;;;5099020;28;20451;-83
2023/03/31 06:44:47;;;;;;;5.43;4.80;;;9.00;99.90;;;;;;5102014;28;20459;-84
2023/03/31 06:47:14;;;;;;;5.87;4.27;;;9.00;99.90;;;;;;5102123;28;20503;-84
2023/03/31 06:49:41;;;;;;;7.87;6.33;;;9.20;99.90;;;;;;5101938;28;20450;-80
2023/03/31 06:52:08;;;;;;;7.23;6.53;;;9.30;99.90;;;;;;5102914;28;20933;-79
2023/03/31 06:54:35;;;;;;;5.33;4.83;;;9.40;99.90;;;;;;5100466;28;20474;-80
2023/03/31 06:57:02;;;;;;;8.43;6.60;;;9.60;99.90;;;;;;5097687;28;20496;-78
2023/03/31 06:59:30;;;;;;;8.03;7.23;;;9.60;99.90;;;;;;5102066;28;20494;-80
2023/03/31 07:01:57;;;;;;;8.10;6.17;;;9.60;99.90;;;;;;5101829;28;20458;-79
2023/03/31 07:04:24;;;;;;;6.53;6.00;;;9.50;99.90;;;;;;5101697;28;20489;-79
2023/03/31 07:06:51;;;;;;;7.20;6.20;;;9.60;99.90;;;;;;5104446;28;20446;-80
2023/03/31 07:09:20;;;;;;;8.20;6.37;;;9.40;99.90;;;;;;5095214;28;20450;-79
2023/03/31 07:11:47;;;;;;;8.07;7.37;;;9.40;99.90;;;;;;5104125;28;20516;-79
2023/03/31 07:14:14;;;;;;;7.10;6.50;;;9.60;99.90;;;;;;5101565;28;20474;-77
2023/03/31 07:16:42;;;;;;;8.70;7.90;;;9.50;99.90;;;;;;5100282;28;20465;-80
2023/03/31 07:19:09;;;;;;;10.13;7.90;;;9.40;99.90;;;;;;5104186;28;20515;-80
2023/03/31 07:21:36;;;;;;;8.03;7.23;;;9.30;99.90;;;;;;5108788;28;20455;-78
2023/03/31 07:24:04;;;;;;;13.90;8.00;;;9.10;99.90;;;;;;5097499;28;20435;-80
2023/03/31 07:26:31;;;;;;;9.17;8.27;;;8.80;99.90;;;;;;5104506;28;20475;-78
2023/03/31 07:28:58;;;;;;;7.73;7.03;;;8.80;99.90;;;;;;5108020;28;20450;-78
2023/03/31 07:31:25;;;;;;;13.43;8.10;;;8.70;99.90;;;;;;5102161;28;20447;-78
2023/03/31 07:33:54;;;;;;;7.43;6.93;;;8.80;99.90;;;;;;5101328;28;20447;-77
2023/03/31 07:36:21;;;;;;;7.23;6.67;;;8.90;99.90;;;;;;5096825;28;20766;-78
2023/03/31 07:38:48;;;;;;;8.47;7.67;;;8.70;99.90;;;;;;5094194;28;20442;-77
2023/03/31 07:41:19;;;;;;;7.40;6.60;;;8.80;99.90;;;;;;5089623;28;20496;-77
2023/03/31 07:43:46;;;;;;;8.40;7.73;;;8.90;99.90;;;;;;5104763;28;20462;-79
2023/03/31 07:46:19;;;;;;;8.80;7.90;;;8.90;99.90;;;;;;5101828;28;21085;-78
2023/03/31 07:48:46;;;;;;;8.80;7.13;;;8.90;99.90;;;;;;5098783;28;20500;-78
2023/03/31 07:51:16;;;;;;;7.93;6.80;;;8.90;99.90;;;;;;5099003;28;20447;-78
2023/03/31 07:53:43;;;;;;;7.70;6.90;;;9.00;99.90;;;;;;5098096;28;20985;-78
2023/03/31 07:56:10;;;;;;;7.70;7.20;;;9.10;99.90;;;;;;5097167;28;20447;-78
2023/03/31 07:58:37;;;;;;;8.13;7.40;;;9.20;99.90;;;;;;5105126;28;20484;-77
2023/03/31 08:01:04;;;;;;;7.40;6.70;;;9.20;99.90;;;;;;5097166;28;20486;-77
2023/03/31 08:03:33;;;;;;;8.57;7.07;;;9.30;99.90;;;;;;5107987;28;20466;-78
2023/03/31 08:06:00;;;;;;;9.03;8.30;;;9.30;99.90;;;;;;5103237;28;20833;-81
2023/03/31 08:08:28;;;;;;;9.27;8.40;;;9.10;99.90;;;;;;5102100;28;20485;-80
2023/03/31 08:10:55;;;;;;;9.10;8.20;;;9.20;99.90;;;;;;5105523;28;20950;-78
2023/03/31 08:13:22;;;;;;;7.80;7.20;;;9.30;99.90;;;;;;5101914;28;20454;-80
2023/03/31 08:15:49;;;;;;;7.23;6.63;;;9.40;99.90;;;;;;5099840;28;20467;-79
2023/03/31 08:18:16;;;;;;;7.93;7.23;;;9.70;99.90;;;;;;5093048;28;20833;-79
2023/03/31 08:20:43;;;;;;;9.93;9.13;;;10.10;99.90;;;;;;5102858;28;20532;-80
2023/03/31 08:23:10;;;;;;;8.90;7.77;;;10.30;99.90;;;;;;5102923;28;20458;-77
2023/03/31 08:25:39;;;;;;;8.90;8.10;;;10.40;99.90;;;;;;5098419;28;20449;-79
2023/03/31 08:28:09;;;;;;;8.10;7.33;;;10.40;99.90;;;;;;5099998;28;20487;-79
2023/03/31 08:30:38;;;;;;;10.70;6.50;;;10.60;99.90;;;;;;5099877;28;20446;-78
2023/03/31 08:33:06;;;;;;;6.90;6.40;;;10.70;99.90;;;;;;5103217;28;20482;-78
2023/03/31 08:35:33;;;;;;;8.73;6.67;;;10.90;99.90;;;;;;5107968;28;20655;-79
2023/03/31 08:38:00;;;;;;;7.93;6.07;;;10.90;99.90;;;;;;5105372;28;20458;-80
2023/03/31 08:40:32;;;;;;;6.00;5.47;;;11.00;99.90;;;;;;5097881;28;20597;-83
2023/03/31 08:43:06;;;;;;;4.80;4.30;;;11.00;99.90;;;;;;5100917;28;20500;-81
2023/03/31 08:45:36;;;;;;;8.10;6.07;;;11.30;99.90;;;;;;5104885;28;20443;-78
2023/03/31 08:48:06;;;;;;;8.97;6.10;;;11.30;99.90;;;;;;5103792;28;20463;-79
2023/03/31 08:50:38;;;;;;;7.20;6.33;;;11.10;99.90;;;;;;5107686;28;20533;-78
2023/03/31 08:53:07;;;;;;;5.53;5.03;;;10.90;99.90;;;;;;5095518;28;20439;-81
2023/03/31 08:55:44;;;;;;;7.83;5.73;;;10.70;99.90;;;;;;5106411;28;20577;-80
2023/03/31 08:58:24;;;;;;;7.20;6.00;;;10.60;99.90;;;;;;5094656;28;20543;-80
2023/03/31 09:00:56;;;;;;;8.97;6.70;;;10.80;99.90;;;;;;5099301;28;20515;-79
2023/03/31 09:03:31;;;;;;;7.07;6.57;;;11.00;99.90;;;;;;5107467;28;20978;-81
2023/03/31 09:06:01;;;;;;;6.67;5.77;;;11.00;99.90;;;;;;5102967;28;20450;-78
2023/03/31 09:08:37;;;;;;;12.50;7.20;;;10.90;99.90;;;;;;5106792;28;20466;-78
2023/03/31 09:11:11;;;;;;;6.10;5.60;;;10.70;99.90;;;;;;5101222;28;20462;-78
2023/03/31 09:14:10;;;;;;;5.47;4.97;;;10.60;99.90;;;;;;5108369;28;20450;-77
2023/03/31 09:16:42;;;;;;;4.87;4.50;;;10.80;99.90;;;;;;5097297;28;20455;-76
2023/03/31 09:19:16;;;;;;;5.30;4.90;;;10.60;99.90;;;;;;5099274;28;20462;-76
2023/03/31 09:21:45;;;;;;;5.80;4.97;;;10.60;99.90;;;;;;5103298;28;20508;-75
2023/03/31 09:24:19;;;;;;;5.40;4.93;;;10.60;99.90;;;;;;5104300;28;20944;-76
2023/03/31 09:26:51;;;;;;;4.33;3.93;;;10.70;99.90;;;;;;5100966;28;21285;-77
2023/03/31 09:29:25;;;;;;;8.17;4.00;;;10.80;99.90;;;;;;5102656;28;20454;-76
2023/03/31 09:31:54;;;;;;;5.10;4.30;;;11.00;99.90;;;;;;5103933;28;20496;-76
2023/03/31 09:34:25;;;;;;;6.70;4.80;;;11.10;99.90;;;;;;5107020;28;20467;-76
2023/03/31 09:36:52;;;;;;;7.50;7.00;;;11.10;99.90;;;;;;5101751;28;20550;-76
2023/03/31 09:39:19;;;;;;;6.80;6.20;;;10.90;99.90;;;;;;5102259;28;20458;-76
2023/03/31 09:41:49;;;;;;;7.77;7.10;;;10.70;99.90;;;;;;5104004;28;20446;-77
2023/03/31 09:44:25;;;;;;;8.50;7.77;;;10.50;99.90;;;;;;5106293;28;20473;-76
2023/03/31 09:46:54;;;;;;;8.60;7.90;;;10.40;99.90;;;;;;5105625;28;20940;-77
2023/03/31 09:49:25;;;;;;;9.73;7.87;;;10.40;99.90;;;;;;5105278;28;20455;-80
2023/03/31 09:52:01;;;;;;;8.50;7.80;;;10.50;99.90;;;;;;5107038;28;20488;-77
2023/03/31 09:54:43;;;;;;;6.83;6.13;;;10.60;99.90;;;;;;5108241;28;20453;-77
2023/03/31 09:57:15;;;;;;;14.07;12.43;;;10.90;99.90;;;;;;5105082;28;20434;-77
2023/03/31 09:59:45;;;;;;;9.60;8.60;;;11.50;99.90;;;;;;5104777;28;20503;-76
2023/03/31 10:02:36;;;;;;;7.20;6.50;;;12.00;99.90;;;;;;5102771;28;20459;-76
2023/03/31 10:05:05;;;;;;;6.80;6.30;;;12.10;99.90;;;;;;5110376;28;20438;-77
2023/03/31 10:07:33;;;;;;;11.00;6.10;;;12.50;99.90;;;;;;5104680;28;20466;-77
2023/03/31 10:10:01;;;;;;;5.70;5.20;;;12.40;99.90;;;;;;5100483;28;20872;-76
2023/03/31 10:12:29;;;;;;;7.80;6.53;;;12.30;99.90;;;;;;5106946;28;20934;-77
2023/03/31 10:15:17;;;;;;;6.23;5.57;;;12.40;99.90;;;;;;5100619;28;20447;-77
2023/03/31 10:17:46;;;;;;;8.63;5.77;;;12.60;99.90;;;;;;5100515;28;20443;-77
2023/03/31 10:20:33;;;;;;;7.73;5.63;;;12.70;99.90;;;;;;5095179;28;20489;-77
2023/03/31 10:23:04;;;;;;;5.43;4.93;;;13.00;99.90;;;;;;5094557;27;20454;-78
2023/03/31 10:25:33;;;;;;;5.00;4.60;;;13.30;99.90;;;;;;5104339;28;20458;-77
2023/03/31 10:28:02;;;;;;;7.43;5.30;;;13.50;99.90;;;;;;5101800;28;20507;-76
2023/03/31 10:30:38;;;;;;;5.67;4.33;;;13.60;99.90;;;;;;5097075;28;20524;-77
2023/03/31 10:33:13;;;;;;;6.80;4.90;;;13.70;99.90;;;;;;5092036;28;20940;-80
2023/03/31 10:35:41;;;;;;;4.73;4.27;;;14.00;99.90;;;;;;5098962;28;20466;-76
2023/03/31 10:38:14;;;;;;;8.67;6.23;;;14.00;99.90;;;;;;5100562;28;20504;-76
2023/03/31 10:40:43;;;;;;;6.90;5.30;;;14.00;99.90;;;;;;5095609;28;21188;-80
2023/03/31 10:43:19;;;;;;;7.20;5.83;;;13.80;99.90;;;;;;5103360;28;20447;-77
2023/03/31 10:45:51;;;;;;;8.27;6.57;;;13.50;99.90;;;;;;5103105;28;20522;-80
2023/03/31 10:48:20;;;;;;;13.60;6.70;;;13.80;99.90;;;;;;5095229;28;20496;-79
2023/03/31 10:50:48;;;;;;;8.80;5.27;;;14.00;99.90;;;;;;5098978;28;20467;-77
2023/03/31 10:53:17;;;;;;;7.97;3.90;;;14.00;99.90;;;;;;5098403;28;20896;-77
2023/03/31 10:55:56;;;;;;;4.37;4.07;;;14.30;99.90;;;;;;5096890;28;20464;-77
2023/03/31 10:58:36;;;;;;;6.23;4.90;;;14.20;99.90;;;;;;5096414;28;20451;-77
2023/03/31 11:01:15;;;;;;;6.33;5.07;;;14.00;99.90;;;;;;5103110;28;20510;-77
2023/03/31 11:04:10;;;;;;;4.77;3.97;;;13.70;99.90;;;;;;5101455;28;20473;-75
2023/03/31 11:06:49;;;;;;;4.50;4.10;;;13.60;99.90;;;;;;5100189;28;20536;-77
2023/03/31 11:09:32;;;;;;;6.27;3.90;;;13.50;99.90;;;;;;5093208;28;20499;-79
2023/03/31 11:12:06;;;;;;;5.63;4.20;;;13.50;99.90;;;;;;5094669;28;20477;-76
2023/03/31 11:14:44;;;;;;;5.20;4.10;;;13.90;99.90;;;;;;5093632;28;20462;-81
2023/03/31 11:17:27;;;;;;;5.57;4.30;;;14.20;99.90;;;;;;5094663;28;20450;-82
2023/03/31 11:20:05;;;;;;;4.77;3.80;;;14.10;99.90;;;;;;5112350;28;20461;-78
2023/03/31 11:22:40;;;;;;;5.60;4.00;;;13.70;99.90;;;;;;5100779;28;20484;-79
2023/03/31 11:25:19;;;;;;;6.67;2.97;;;13.80;99.90;;;;;;5095444;28;20446;-78
2023/03/31 11:28:25;;;;;;;4.60;2.97;;;13.90;99.90;;;;;;5095131;28;20486;-81
2023/03/31 11:30:58;;;;;;;3.20;2.70;;;13.90;99.90;;;;;;5097779;28;20491;-80
2023/03/31 11:33:54;;;;;;;2.93;2.43;;;14.20;99.90;;;;;;5098499;28;20455;-78
2023/03/31 11:36:35;;;;;;;4.43;2.30;;;14.30;99.90;;;;;;5060307;28;20447;-78
2023/03/31 11:39:14;;;;;;;2.30;2.00;;;14.60;99.90;;;;;;5096100;28;20500;-79
2023/03/31 11:41:47;;;;;;;2.67;2.13;;;15.00;99.90;;;;;;5090514;28;20564;-79
2023/03/31 11:44:17;;;;;;;4.63;2.77;;;15.00;99.90;;;;;;5102264;28;20860;-79
2023/03/31 11:46:48;;;;;;;4.03;3.10;;;15.10;99.90;;;;;;5103650;28;20511;-79
2023/03/31 11:49:20;;;;;;;7.37;3.30;;;15.60;99.90;;;;;;5103598;28;20447;-77
2023/03/31 11:51:54;;;;;;;3.60;2.40;;;15.90;99.90;;;;;;5101046;28;21325;-80
2023/03/31 11:54:28;;;;;;;4.10;2.57;;;16.00;99.90;;;;;;5099482;28;20446;-81
2023/03/31 11:56:56;;;;;;;3.30;2.50;;;15.90;99.90;;;;;;5097923;28;20495;-79
2023/03/31 11:59:28;;;;;;;2.00;1.90;;;15.90;99.90;;;;;;5095863;28;20531;-78
2023/03/31 12:02:04;;;;;;;2.70;2.17;;;15.80;99.90;;;;;;5100007;28;20492;-79
2023/03/31 12:04:34;;;;;;;2.70;1.87;;;15.80;99.90;;;;;;5100021;28;20454;-79
2023/03/31 12:07:12;;;;;;;3.23;1.57;;;16.00;99.90;;;;;;5100973;28;20510;-81
2023/03/31 12:09:48;;;;;;;6.00;4.23;;;15.90;99.90;;;;;;5098200;28;20844;-79
2023/03/31 12:12:19;;;;;;;1.40;1.30;;;15.80;99.90;;;;;;5093973;28;20512;-82
2023/03/31 12:14:51;;;;;;;3.00;1.90;;;15.70;99.90;;;;;;5092846;28;20508;-79
2023/03/31 12:17:21;;;;;;;2.17;1.73;;;15.50;99.90;;;;;;5095415;28;20445;-78
2023/03/31 12:19:52;;;;;;;2.73;1.80;;;15.40;99.90;;;;;;5104619;28;21306;-81
2023/03/31 12:22:26;;;;;;;2.30;2.10;;;15.20;99.90;;;;;;5092246;28;20585;-78
2023/03/31 12:24:53;;;;;;;3.70;2.00;;;15.00;99.90;;;;;;5093485;28;20457;-78
2023/03/31 12:27:25;;;;;;;4.07;2.00;;;14.90;99.90;;;;;;5100068;28;20523;-79
2023/03/31 12:29:58;;;;;;;2.33;1.67;;;14.80;99.90;;;;;;5096929;28;20463;-78
2023/03/31 12:32:29;;;;;;;1.80;1.70;;;14.80;99.90;;;;;;5098599;28;20546;-77
2023/03/31 12:35:02;;;;;;;2.37;1.90;;;14.70;99.90;;;;;;5106420;28;20466;-78
2023/03/31 12:37:50;;;;;;;2.13;1.90;;;14.60;99.90;;;;;;5107053;28;20481;-80
2023/03/31 12:40:24;;;;;;;3.63;2.50;;;14.50;99.90;;;;;;5113536;28;20519;-78
2023/03/31 12:43:30;;;;;;;7.17;2.40;;;14.60;99.90;;;;;;5103303;28;20442;-79
2023/03/31 12:46:09;;;;;;;5.10;2.67;;;14.80;99.90;;;;;;5115548;28;20500;-79
2023/03/31 12:48:53;;;;;;;6.17;2.97;;;14.80;99.90;;;;;;5101309;28;20474;-78
2023/03/31 12:51:39;;;;;;;8.20;2.70;;;14.80;99.90;;;;;;5106299;28;20931;-79
2023/03/31 12:54:29;;;;;;;2.20;2.10;;;14.80;99.90;;;;;;5103910;28;20844;-78
2023/03/31 12:57:16;;;;;;;2.87;2.67;;;14.60;99.90;;;;;;5100985;27;20445;-78
2023/03/31 12:59:44;;;;;;;3.80;2.70;;;14.50;99.90;;;;;;5105085;28;20895;-78
2023/03/31 13:02:24;;;;;;;2.60;2.40;;;14.40;99.90;;;;;;5106339;28;20596;-77
2023/03/31 13:04:52;;;;;;;2.83;2.63;;;14.20;99.90;;;;;;5102565;28;20470;-79
2023/03/31 13:07:40;;;;;;;2.30;2.00;;;14.10;99.90;;;;;;5102264;28;20906;-78
2023/03/31 13:10:31;;;;;;;3.40;1.73;;;13.80;99.90;;;;;;5105668;28;20463;-79
2023/03/31 13:13:03;;;;;;;3.57;1.60;;;13.50;99.90;;;;;;5104443;28;21016;-78
2023/03/31 13:15:31;;;;;;;0.97;0.80;;;13.40;99.90;;;;;;5104100;28;20561;-77
2023/03/31 13:17:59;;;;;;;1.43;1.03;;;13.30;99.90;;;;;;5103136;28;20458;-79